»·PEaware :: SWA1326 KOAK-KPDX

SWA1326 :: KOAK-KPDX

FLIGHT INFORMATION

Flight Status: Arrived
Operator:
Southwest Airlines
More flights by this operator :: More flights under this callsign
Pilot: Brandon G. (13)
Aircraft: BOEING 737-800
(B738)
More flights by this aircraft type
Origin: KOAK Metro Oakland Intl
United States
Destination: KPDX Portland Intl
United States
More flights between these airports :: More routes between these airports
Route: + / SGD17517 MACHU TMBRS2
File this flight plan on PilotEdge
Remarks:
Altitude:
(Current/Filed)
38,000ft
Speed:
(Current/Filed)
425kts
Departed: 03-Jan-18 06:39 PM
Arrived: 03-Jan-18 07:57 PM
Distance/Time
Traveled:
472nm/1:18
Distance/Time
To Go:
Arrived

Flight Plot

Page will automatically refresh every two minutes.

Flight plan parsing failed; only flown route is shown


Map Options




Map Legend


Flown Route
Filed Route
Departure Airport
Arrival Airport
Navaid (VOR, NDB)
Fix

Horizontal Profiles

Position Reports

Time Latitude Longitude Heading Altitude Ground
Speed
03-Jan-18 18:27 37.708895 -122.213355 92 11ft 0kts
03-Jan-18 18:28 37.708895 -122.213355 92 11ft 0kts
03-Jan-18 18:29 37.708895 -122.213355 92 11ft 0kts
03-Jan-18 18:30 37.708895 -122.213355 92 11ft 0kts
03-Jan-18 18:31 37.708895 -122.213355 92 11ft 0kts
03-Jan-18 18:32 37.708895 -122.213355 92 11ft 0kts
03-Jan-18 18:33 37.708895 -122.213355 92 11ft 0kts
03-Jan-18 18:34 37.708895 -122.213355 92 11ft 0kts
03-Jan-18 18:35 37.708895 -122.213355 92 11ft 0kts
03-Jan-18 18:36 37.708895 -122.213355 92 11ft 0kts
03-Jan-18 18:37 37.708975 -122.213897 122 11ft 2kts
03-Jan-18 18:38 37.709479 -122.214219 186 11ft 2kts
03-Jan-18 18:39 37.709619 -122.214179 201 11ft 0kts
03-Jan-18 18:40 37.709619 -122.214179 201 11ft 0kts
03-Jan-18 18:41 37.709379 -122.214359 218 11ft 5kts
03-Jan-18 18:42 37.708886 -122.215191 255 11ft 6kts
03-Jan-18 18:43 37.705896 -122.217056 130 11ft 18kts
03-Jan-18 18:44 37.701889 -122.214203 252 11ft 16kts
03-Jan-18 18:45 37.717932 -122.239009 309 1074ft 173kts
03-Jan-18 18:46 37.748282 -122.288135 306 3672ft 202kts
03-Jan-18 18:47 37.782835 -122.341117 330 6006ft 231kts
03-Jan-18 18:48 37.854111 -122.337229 6 8849ft 290kts
03-Jan-18 18:49 37.934616 -122.327285 357 11433ft 340kts
03-Jan-18 18:50 38.028164 -122.333381 356 14843ft 361kts
03-Jan-18 18:51 38.122012 -122.339605 356 17841ft 380kts
03-Jan-18 18:52 38.226858 -122.346573 356 20787ft 401kts
03-Jan-18 18:53 38.338348 -122.354012 356 23537ft 421kts
03-Jan-18 18:54 38.453433 -122.361722 356 26006ft 439kts
03-Jan-18 18:55 38.573766 -122.369812 356 28326ft 456kts
03-Jan-18 18:56 38.698179 -122.378201 356 30492ft 471kts
03-Jan-18 18:57 38.823398 -122.386645 356 33017ft 470kts
03-Jan-18 18:58 38.950297 -122.395243 356 35473ft 462kts
03-Jan-18 18:59 39.074233 -122.403614 355 37682ft 453kts
03-Jan-18 19:00 39.191864 -122.411667 355 38068ft 475kts
03-Jan-18 19:01 39.324000 -122.420725 355 38070ft 488kts
03-Jan-18 19:02 39.456480 -122.429812 355 38077ft 487kts
03-Jan-18 19:03 39.587962 -122.438875 355 38090ft 487kts
03-Jan-18 19:04 39.720606 -122.448035 355 38110ft 487kts
03-Jan-18 19:05 39.850813 -122.457055 355 38111ft 487kts
03-Jan-18 19:06 39.983617 -122.466309 355 38113ft 487kts
03-Jan-18 19:07 40.110845 -122.475177 356 38108ft 488kts
03-Jan-18 19:08 40.243263 -122.484457 355 38099ft 487kts
03-Jan-18 19:09 40.376528 -122.493825 355 38087ft 487kts
03-Jan-18 19:10 40.509325 -122.503176 355 38088ft 487kts
03-Jan-18 19:11 40.637725 -122.512267 355 38092ft 487kts
03-Jan-18 19:12 40.770717 -122.521687 356 38095ft 487kts
03-Jan-18 19:13 40.903959 -122.531145 355 38092ft 487kts
03-Jan-18 19:14 41.035971 -122.540525 355 38103ft 485kts
03-Jan-18 19:15 41.158528 -122.549192 353 38118ft 478kts
03-Jan-18 19:16 41.287669 -122.558443 354 38131ft 479kts
03-Jan-18 19:17 41.416927 -122.567695 354 38132ft 479kts
03-Jan-18 19:18 41.547240 -122.576833 354 38137ft 479kts
03-Jan-18 19:19 41.678294 -122.585401 354 38135ft 479kts
03-Jan-18 19:20 41.790141 -122.592751 356 38135ft 477kts
03-Jan-18 19:21 41.920656 -122.601260 356 38139ft 477kts
03-Jan-18 19:22 42.049583 -122.609726 356 38141ft 477kts
03-Jan-18 19:23 42.175394 -122.617985 356 38109ft 477kts
03-Jan-18 19:24 42.306118 -122.626729 356 38087ft 477kts
03-Jan-18 19:25 42.436596 -122.635499 356 38083ft 477kts
03-Jan-18 19:26 42.567475 -122.644296 356 38081ft 477kts
03-Jan-18 19:27 42.696348 -122.652939 355 38080ft 477kts
03-Jan-18 19:28 42.827516 -122.661737 355 38084ft 477kts
03-Jan-18 19:29 42.958221 -122.670572 354 38083ft 474kts
03-Jan-18 19:30 43.071453 -122.678343 353 38080ft 463kts
03-Jan-18 19:31 43.193028 -122.686736 353 38063ft 465kts
03-Jan-18 19:32 43.321691 -122.695585 353 38065ft 465kts
03-Jan-18 19:33 43.449786 -122.704388 353 38066ft 465kts
03-Jan-18 19:34 43.577727 -122.713296 353 38076ft 464kts
03-Jan-18 19:35 43.705691 -122.722192 353 37393ft 470kts
03-Jan-18 19:36 43.834964 -122.731225 353 33644ft 475kts
03-Jan-18 19:37 43.961204 -122.739989 353 31516ft 439kts
03-Jan-18 19:38 44.084308 -122.748681 354 29871ft 483kts
03-Jan-18 19:39 44.209195 -122.747893 1 28831ft 477kts
03-Jan-18 19:40 44.342388 -122.734173 2 27795ft 483kts
03-Jan-18 19:41 44.472501 -122.721282 2 25295ft 463kts
03-Jan-18 19:42 44.596304 -122.709008 2 22843ft 427kts
03-Jan-18 19:43 44.707871 -122.697801 2 20316ft 385kts
03-Jan-18 19:44 44.803453 -122.688189 3 18021ft 358kts
03-Jan-18 19:45 44.899822 -122.678489 3 16177ft 334kts
03-Jan-18 19:46 44.988987 -122.669492 3 14517ft 316kts
03-Jan-18 19:47 45.075235 -122.660763 3 12689ft 309kts
03-Jan-18 19:48 45.156662 -122.652418 3 10958ft 301kts
03-Jan-18 19:49 45.238056 -122.644140 1 9221ft 293kts
03-Jan-18 19:50 45.310134 -122.676056 339 8099ft 269kts
03-Jan-18 19:51 45.379201 -122.714067 339 7120ft 268kts
03-Jan-18 19:52 45.447643 -122.751684 340 6148ft 259kts
03-Jan-18 19:53 45.511768 -122.786998 340 5232ft 239kts
03-Jan-18 19:54 45.570267 -122.819414 335 5002ft 221kts
03-Jan-18 19:55 45.606474 -122.888783 301 4997ft 218kts
03-Jan-18 19:56 45.644058 -122.954649 334 5006ft 219kts
03-Jan-18 19:57 45.681510 -122.901756 74 4514ft 218kts
03-Jan-18 19:58 45.669994 -122.820039 113 3538ft 198kts
03-Jan-18 19:59 45.645897 -122.752430 118 1964ft 169kts
03-Jan-18 20:00 45.625515 -122.701970 115 1127ft 144kts
03-Jan-18 20:01 45.607457 -122.653029 118 550ft 140kts
03-Jan-18 20:02 45.590354 -122.609172 119 37ft 87kts
03-Jan-18 20:03 45.588019 -122.599910 61 37ft 0kts
03-Jan-18 20:04 45.589029 -122.597958 15 37ft 0kts
03-Jan-18 20:05 45.589029 -122.597958 15 37ft 0kts
03-Jan-18 20:06 45.589029 -122.597958 15 37ft 0kts
03-Jan-18 20:07 45.589029 -122.597958 15 37ft 0kts
03-Jan-18 20:08 45.589029 -122.597958 15 37ft 0kts
03-Jan-18 20:09 45.589029 -122.597958 15 37ft 0kts
03-Jan-18 20:10 45.589029 -122.597958 15 37ft 0kts

Navigation Log

Ident Type
Flight plan parsing failed, navigation log unavailable